sensor_id;sensor_type;location;lat;lon;timestamp;P1;durP1;ratioP1;P2;durP2;ratioP2
60724;SDS011;59881;36.722;-4.462;2022-11-15T00:02:06;0.40;;;0.25;;
60724;SDS011;59881;36.722;-4.462;2022-11-15T00:04:32;3.20;;;0.32;;
60724;SDS011;59881;36.722;-4.462;2022-11-15T00:06:57;0.20;;;0.20;;
60724;SDS011;59881;36.722;-4.462;2022-11-15T00:09:23;0.35;;;0.22;;
60724;SDS011;59881;36.722;-4.462;2022-11-15T00:11:48;0.20;;;0.20;;
60724;SDS011;59881;36.722;-4.462;2022-11-15T00:14:14;0.20;;;0.20;;
60724;SDS011;59881;36.722;-4.462;2022-11-15T00:16:39;0.20;;;0.20;;
60724;SDS011;59881;36.722;-4.462;2022-11-15T00:19:05;0.10;;;0.10;;
60724;SDS011;59881;36.722;-4.462;2022-11-15T00:21:31;0.47;;;0.32;;
60724;SDS011;59881;36.722;-4.462;2022-11-15T00:23:56;1.45;;;0.85;;
60724;SDS011;59881;36.722;-4.462;2022-11-15T00:26:23;0.57;;;0.38;;
60724;SDS011;59881;36.722;-4.462;2022-11-15T00:28:48;0.20;;;0.20;;
60724;SDS011;59881;36.722;-4.462;2022-11-15T00:31:17;0.17;;;0.17;;
60724;SDS011;59881;36.722;-4.462;2022-11-15T00:33:43;0.20;;;0.20;;
60724;SDS011;59881;36.722;-4.462;2022-11-15T00:36:09;0.47;;;0.35;;
60724;SDS011;59881;36.722;-4.462;2022-11-15T00:38:36;0.35;;;0.30;;
60724;SDS011;59881;36.722;-4.462;2022-11-15T00:41:03;0.80;;;0.43;;
60724;SDS011;59881;36.722;-4.462;2022-11-15T00:43:31;0.20;;;0.20;;
60724;SDS011;59881;36.722;-4.462;2022-11-15T00:45:57;0.22;;;0.22;;
60724;SDS011;59881;36.722;-4.462;2022-11-15T00:48:23;0.25;;;0.25;;
60724;SDS011;59881;36.722;-4.462;2022-11-15T00:50:49;0.10;;;0.10;;
60724;SDS011;59881;36.722;-4.462;2022-11-15T00:53:15;0.10;;;0.10;;
60724;SDS011;59881;36.722;-4.462;2022-11-15T00:55:41;0.10;;;0.10;;
60724;SDS011;59881;36.722;-4.462;2022-11-15T00:58:06;0.30;;;0.30;;
60724;SDS011;59881;36.722;-4.462;2022-11-15T01:00:32;0.15;;;0.15;;
60724;SDS011;59881;36.722;-4.462;2022-11-15T01:02:59;0.38;;;0.38;;
60724;SDS011;59881;36.722;-4.462;2022-11-15T01:05:25;0.10;;;0.10;;
60724;SDS011;59881;36.722;-4.462;2022-11-15T01:07:51;0.10;;;0.10;;
60724;SDS011;59881;36.722;-4.462;2022-11-15T01:10:18;0.20;;;0.20;;
60724;SDS011;59881;36.722;-4.462;2022-11-15T01:12:43;0.10;;;0.10;;
60724;SDS011;59881;36.722;-4.462;2022-11-15T01:15:09;0.10;;;0.10;;
60724;SDS011;59881;36.722;-4.462;2022-11-15T01:17:35;0.20;;;0.20;;
60724;SDS011;59881;36.722;-4.462;2022-11-15T01:20:00;0.73;;;0.32;;
60724;SDS011;59881;36.722;-4.462;2022-11-15T01:22:26;0.30;;;0.30;;
60724;SDS011;59881;36.722;-4.462;2022-11-15T01:24:52;0.25;;;0.25;;
60724;SDS011;59881;36.722;-4.462;2022-11-15T01:27:17;0.88;;;0.30;;
60724;SDS011;59881;36.722;-4.462;2022-11-15T01:29:43;0.32;;;0.25;;
60724;SDS011;59881;36.722;-4.462;2022-11-15T01:32:08;0.10;;;0.10;;
60724;SDS011;59881;36.722;-4.462;2022-11-15T01:34:34;0.82;;;0.30;;
60724;SDS011;59881;36.722;-4.462;2022-11-15T01:36:59;0.10;;;0.10;;
60724;SDS011;59881;36.722;-4.462;2022-11-15T01:39:25;0.20;;;0.20;;
60724;SDS011;59881;36.722;-4.462;2022-11-15T01:41:51;0.28;;;0.28;;
60724;SDS011;59881;36.722;-4.462;2022-11-15T01:47:08;0.20;;;0.20;;
60724;SDS011;59881;36.722;-4.462;2022-11-15T01:49:38;0.10;;;0.10;;
60724;SDS011;59881;36.722;-4.462;2022-11-15T01:52:11;0.10;;;0.10;;
60724;SDS011;59881;36.722;-4.462;2022-11-15T01:54:40;0.10;;;0.10;;
60724;SDS011;59881;36.722;-4.462;2022-11-15T01:57:09;0.20;;;0.20;;
60724;SDS011;59881;36.722;-4.462;2022-11-15T01:59:37;0.10;;;0.10;;
60724;SDS011;59881;36.722;-4.462;2022-11-15T02:02:05;0.88;;;0.35;;
60724;SDS011;59881;36.722;-4.462;2022-11-15T02:04:32;0.20;;;0.20;;
60724;SDS011;59881;36.722;-4.462;2022-11-15T02:07:04;0.30;;;0.30;;
60724;SDS011;59881;36.722;-4.462;2022-11-15T02:09:32;0.20;;;0.20;;
60724;SDS011;59881;36.722;-4.462;2022-11-15T02:11:57;0.08;;;0.08;;
60724;SDS011;59881;36.722;-4.462;2022-11-15T02:14:25;1.35;;;0.30;;
60724;SDS011;59881;36.722;-4.462;2022-11-15T02:23:14;0.80;;;0.20;;
60724;SDS011;59881;36.722;-4.462;2022-11-15T02:27:54;0.17;;;0.17;;
60724;SDS011;59881;36.722;-4.462;2022-11-15T02:30:59;0.28;;;0.28;;
60724;SDS011;59881;36.722;-4.462;2022-11-15T02:33:35;0.43;;;0.32;;
60724;SDS011;59881;36.722;-4.462;2022-11-15T02:36:17;0.20;;;0.20;;
60724;SDS011;59881;36.722;-4.462;2022-11-15T02:41:50;0.10;;;0.10;;
60724;SDS011;59881;36.722;-4.462;2022-11-15T02:44:39;1.08;;;0.28;;
60724;SDS011;59881;36.722;-4.462;2022-11-15T02:47:12;0.13;;;0.13;;
60724;SDS011;59881;36.722;-4.462;2022-11-15T02:49:45;0.35;;;0.20;;
60724;SDS011;59881;36.722;-4.462;2022-11-15T02:52:16;0.22;;;0.22;;
60724;SDS011;59881;36.722;-4.462;2022-11-15T02:54:57;0.40;;;0.40;;
60724;SDS011;59881;36.722;-4.462;2022-11-15T02:57:49;0.10;;;0.10;;
60724;SDS011;59881;36.722;-4.462;2022-11-15T03:00:18;0.22;;;0.20;;
60724;SDS011;59881;36.722;-4.462;2022-11-15T03:11:11;0.10;;;0.10;;
60724;SDS011;59881;36.722;-4.462;2022-11-15T03:16:29;0.20;;;0.20;;
60724;SDS011;59881;36.722;-4.462;2022-11-15T03:19:07;0.60;;;0.50;;
60724;SDS011;59881;36.722;-4.462;2022-11-15T03:21:58;0.10;;;0.10;;
60724;SDS011;59881;36.722;-4.462;2022-11-15T03:24:26;0.20;;;0.20;;
60724;SDS011;59881;36.722;-4.462;2022-11-15T03:26:54;0.20;;;0.20;;
60724;SDS011;59881;36.722;-4.462;2022-11-15T03:29:27;0.25;;;0.25;;
60724;SDS011;59881;36.722;-4.462;2022-11-15T03:31:58;0.20;;;0.20;;
60724;SDS011;59881;36.722;-4.462;2022-11-15T03:34:30;0.20;;;0.20;;
60724;SDS011;59881;36.722;-4.462;2022-11-15T03:37:01;0.22;;;0.22;;
60724;SDS011;59881;36.722;-4.462;2022-11-15T03:39:26;0.30;;;0.30;;
60724;SDS011;59881;36.722;-4.462;2022-11-15T03:42:01;0.20;;;0.20;;
60724;SDS011;59881;36.722;-4.462;2022-11-15T03:47:11;1.98;;;0.30;;
60724;SDS011;59881;36.722;-4.462;2022-11-15T03:49:49;0.20;;;0.20;;
60724;SDS011;59881;36.722;-4.462;2022-11-15T03:52:18;0.93;;;0.40;;
60724;SDS011;59881;36.722;-4.462;2022-11-15T03:54:49;0.30;;;0.30;;
60724;SDS011;59881;36.722;-4.462;2022-11-15T03:57:19;0.40;;;0.20;;
60724;SDS011;59881;36.722;-4.462;2022-11-15T03:59:45;0.22;;;0.22;;
60724;SDS011;59881;36.722;-4.462;2022-11-15T04:02:11;2.83;;;0.68;;
60724;SDS011;59881;36.722;-4.462;2022-11-15T04:04:37;0.35;;;0.30;;
60724;SDS011;59881;36.722;-4.462;2022-11-15T04:07:03;0.82;;;0.40;;
60724;SDS011;59881;36.722;-4.462;2022-11-15T04:09:28;0.25;;;0.22;;
60724;SDS011;59881;36.722;-4.462;2022-11-15T04:11:54;0.10;;;0.10;;
60724;SDS011;59881;36.722;-4.462;2022-11-15T04:14:19;0.30;;;0.30;;
60724;SDS011;59881;36.722;-4.462;2022-11-15T04:16:45;0.10;;;0.10;;
60724;SDS011;59881;36.722;-4.462;2022-11-15T04:19:10;0.20;;;0.20;;
60724;SDS011;59881;36.722;-4.462;2022-11-15T04:21:55;0.13;;;0.13;;
60724;SDS011;59881;36.722;-4.462;2022-11-15T04:24:39;0.10;;;0.10;;
60724;SDS011;59881;36.722;-4.462;2022-11-15T04:27:04;0.20;;;0.20;;
60724;SDS011;59881;36.722;-4.462;2022-11-15T04:29:30;0.20;;;0.20;;
60724;SDS011;59881;36.722;-4.462;2022-11-15T04:32:05;0.10;;;0.10;;
60724;SDS011;59881;36.722;-4.462;2022-11-15T04:34:31;0.15;;;0.15;;
60724;SDS011;59881;36.722;-4.462;2022-11-15T04:36:57;0.32;;;0.30;;
60724;SDS011;59881;36.722;-4.462;2022-11-15T04:39:39;0.20;;;0.20;;
60724;SDS011;59881;36.722;-4.462;2022-11-15T04:42:05;0.10;;;0.10;;
60724;SDS011;59881;36.722;-4.462;2022-11-15T04:44:31;0.30;;;0.30;;
60724;SDS011;59881;36.722;-4.462;2022-11-15T04:46:57;0.47;;;0.38;;
60724;SDS011;59881;36.722;-4.462;2022-11-15T04:49:22;0.20;;;0.20;;
60724;SDS011;59881;36.722;-4.462;2022-11-15T04:51:48;0.10;;;0.10;;
60724;SDS011;59881;36.722;-4.462;2022-11-15T04:54:13;0.20;;;0.20;;
60724;SDS011;59881;36.722;-4.462;2022-11-15T04:56:39;0.20;;;0.20;;
60724;SDS011;59881;36.722;-4.462;2022-11-15T04:59:04;0.20;;;0.20;;
60724;SDS011;59881;36.722;-4.462;2022-11-15T05:01:30;0.35;;;0.25;;
60724;SDS011;59881;36.722;-4.462;2022-11-15T05:03:55;0.17;;;0.17;;
60724;SDS011;59881;36.722;-4.462;2022-11-15T05:06:40;0.20;;;0.20;;
60724;SDS011;59881;36.722;-4.462;2022-11-15T05:09:05;0.10;;;0.10;;
60724;SDS011;59881;36.722;-4.462;2022-11-15T05:11:31;0.20;;;0.20;;
60724;SDS011;59881;36.722;-4.462;2022-11-15T05:13:56;0.10;;;0.10;;
60724;SDS011;59881;36.722;-4.462;2022-11-15T05:16:22;0.10;;;0.10;;
60724;SDS011;59881;36.722;-4.462;2022-11-15T05:18:50;0.10;;;0.10;;
60724;SDS011;59881;36.722;-4.462;2022-11-15T05:21:16;0.20;;;0.20;;
60724;SDS011;59881;36.722;-4.462;2022-11-15T05:23:42;0.10;;;0.10;;
60724;SDS011;59881;36.722;-4.462;2022-11-15T05:26:08;0.10;;;0.10;;
60724;SDS011;59881;36.722;-4.462;2022-11-15T05:28:34;0.10;;;0.10;;
60724;SDS011;59881;36.722;-4.462;2022-11-15T05:31:05;0.15;;;0.15;;
60724;SDS011;59881;36.722;-4.462;2022-11-15T05:33:31;0.35;;;0.22;;
60724;SDS011;59881;36.722;-4.462;2022-11-15T05:36:02;0.20;;;0.20;;
60724;SDS011;59881;36.722;-4.462;2022-11-15T05:38:32;0.20;;;0.20;;
60724;SDS011;59881;36.722;-4.462;2022-11-15T05:40:59;0.10;;;0.10;;
60724;SDS011;59881;36.722;-4.462;2022-11-15T05:43:25;0.10;;;0.10;;
60724;SDS011;59881;36.722;-4.462;2022-11-15T05:45:51;0.13;;;0.13;;
60724;SDS011;59881;36.722;-4.462;2022-11-15T05:48:17;0.20;;;0.20;;
60724;SDS011;59881;36.722;-4.462;2022-11-15T05:50:43;0.17;;;0.17;;
60724;SDS011;59881;36.722;-4.462;2022-11-15T05:53:12;0.20;;;0.20;;
60724;SDS011;59881;36.722;-4.462;2022-11-15T05:55:39;0.10;;;0.10;;
60724;SDS011;59881;36.722;-4.462;2022-11-15T05:58:06;0.10;;;0.10;;
60724;SDS011;59881;36.722;-4.462;2022-11-15T06:00:32;0.10;;;0.10;;
60724;SDS011;59881;36.722;-4.462;2022-11-15T06:02:57;0.60;;;0.40;;
60724;SDS011;59881;36.722;-4.462;2022-11-15T06:05:23;4.18;;;1.15;;
60724;SDS011;59881;36.722;-4.462;2022-11-15T06:07:49;2.05;;;0.65;;
60724;SDS011;59881;36.722;-4.462;2022-11-15T06:10:14;0.30;;;0.30;;
60724;SDS011;59881;36.722;-4.462;2022-11-15T06:12:40;0.13;;;0.13;;
60724;SDS011;59881;36.722;-4.462;2022-11-15T06:15:05;0.10;;;0.10;;
60724;SDS011;59881;36.722;-4.462;2022-11-15T06:17:31;0.47;;;0.47;;
60724;SDS011;59881;36.722;-4.462;2022-11-15T06:19:57;0.20;;;0.20;;
60724;SDS011;59881;36.722;-4.462;2022-11-15T06:22:22;0.10;;;0.10;;
60724;SDS011;59881;36.722;-4.462;2022-11-15T06:24:48;0.20;;;0.20;;
60724;SDS011;59881;36.722;-4.462;2022-11-15T06:27:13;0.88;;;0.30;;
60724;SDS011;59881;36.722;-4.462;2022-11-15T06:29:39;0.43;;;0.43;;
60724;SDS011;59881;36.722;-4.462;2022-11-15T06:32:04;0.38;;;0.35;;
60724;SDS011;59881;36.722;-4.462;2022-11-15T06:34:30;0.22;;;0.22;;
60724;SDS011;59881;36.722;-4.462;2022-11-15T06:36:56;0.20;;;0.20;;
60724;SDS011;59881;36.722;-4.462;2022-11-15T06:39:22;0.43;;;0.43;;
60724;SDS011;59881;36.722;-4.462;2022-11-15T06:41:47;0.80;;;0.30;;
60724;SDS011;59881;36.722;-4.462;2022-11-15T06:44:13;0.20;;;0.20;;
60724;SDS011;59881;36.722;-4.462;2022-11-15T06:46:39;0.90;;;0.50;;
60724;SDS011;59881;36.722;-4.462;2022-11-15T06:49:05;0.20;;;0.20;;
60724;SDS011;59881;36.722;-4.462;2022-11-15T06:51:30;0.30;;;0.30;;
60724;SDS011;59881;36.722;-4.462;2022-11-15T06:53:56;2.22;;;0.70;;
60724;SDS011;59881;36.722;-4.462;2022-11-15T06:56:21;0.30;;;0.22;;
60724;SDS011;59881;36.722;-4.462;2022-11-15T06:58:47;0.45;;;0.45;;
60724;SDS011;59881;36.722;-4.462;2022-11-15T07:01:12;0.30;;;0.30;;
60724;SDS011;59881;36.722;-4.462;2022-11-15T07:03:39;0.28;;;0.25;;
60724;SDS011;59881;36.722;-4.462;2022-11-15T07:06:06;0.20;;;0.20;;
60724;SDS011;59881;36.722;-4.462;2022-11-15T07:08:33;1.92;;;0.40;;
60724;SDS011;59881;36.722;-4.462;2022-11-15T07:11:00;0.20;;;0.20;;
60724;SDS011;59881;36.722;-4.462;2022-11-15T07:13:28;0.10;;;0.10;;
60724;SDS011;59881;36.722;-4.462;2022-11-15T07:15:57;0.43;;;0.20;;
60724;SDS011;59881;36.722;-4.462;2022-11-15T07:18:26;0.63;;;0.30;;
60724;SDS011;59881;36.722;-4.462;2022-11-15T07:20:52;1.30;;;0.52;;
60724;SDS011;59881;36.722;-4.462;2022-11-15T07:23:18;1.83;;;0.63;;
60724;SDS011;59881;36.722;-4.462;2022-11-15T07:25:43;0.60;;;0.52;;
60724;SDS011;59881;36.722;-4.462;2022-11-15T07:28:09;1.75;;;1.33;;
60724;SDS011;59881;36.722;-4.462;2022-11-15T07:30:35;1.70;;;0.88;;
60724;SDS011;59881;36.722;-4.462;2022-11-15T07:33:00;3.60;;;0.95;;
60724;SDS011;59881;36.722;-4.462;2022-11-15T07:35:26;0.90;;;0.90;;
60724;SDS011;59881;36.722;-4.462;2022-11-15T07:38:00;9.50;;;3.03;;
60724;SDS011;59881;36.722;-4.462;2022-11-15T07:40:27;9.25;;;3.90;;
60724;SDS011;59881;36.722;-4.462;2022-11-15T07:43:00;10.18;;;4.85;;
60724;SDS011;59881;36.722;-4.462;2022-11-15T07:45:27;3.53;;;2.03;;
60724;SDS011;59881;36.722;-4.462;2022-11-15T07:47:53;3.95;;;2.42;;
60724;SDS011;59881;36.722;-4.462;2022-11-15T07:50:20;3.53;;;2.38;;
60724;SDS011;59881;36.722;-4.462;2022-11-15T07:52:47;2.47;;;1.27;;
60724;SDS011;59881;36.722;-4.462;2022-11-15T07:55:13;1.08;;;0.95;;
60724;SDS011;59881;36.722;-4.462;2022-11-15T07:57:38;4.53;;;1.60;;
60724;SDS011;59881;36.722;-4.462;2022-11-15T08:00:04;1.73;;;1.48;;
60724;SDS011;59881;36.722;-4.462;2022-11-15T08:02:31;2.13;;;1.10;;
60724;SDS011;59881;36.722;-4.462;2022-11-15T08:04:56;2.03;;;1.40;;
60724;SDS011;59881;36.722;-4.462;2022-11-15T08:07:22;1.10;;;0.70;;
60724;SDS011;59881;36.722;-4.462;2022-11-15T08:09:48;2.58;;;1.00;;
60724;SDS011;59881;36.722;-4.462;2022-11-15T08:12:14;3.13;;;0.82;;
60724;SDS011;59881;36.722;-4.462;2022-11-15T08:14:39;2.15;;;1.02;;
60724;SDS011;59881;36.722;-4.462;2022-11-15T08:17:05;2.05;;;1.02;;
60724;SDS011;59881;36.722;-4.462;2022-11-15T08:19:31;1.83;;;1.20;;
60724;SDS011;59881;36.722;-4.462;2022-11-15T08:21:56;1.20;;;0.77;;
60724;SDS011;59881;36.722;-4.462;2022-11-15T08:24:21;0.55;;;0.43;;
60724;SDS011;59881;36.722;-4.462;2022-11-15T08:26:47;0.38;;;0.38;;
60724;SDS011;59881;36.722;-4.462;2022-11-15T08:29:12;1.40;;;0.43;;
60724;SDS011;59881;36.722;-4.462;2022-11-15T08:31:38;1.02;;;0.50;;
60724;SDS011;59881;36.722;-4.462;2022-11-15T08:34:04;0.65;;;0.43;;
60724;SDS011;59881;36.722;-4.462;2022-11-15T08:36:30;0.60;;;0.45;;
60724;SDS011;59881;36.722;-4.462;2022-11-15T08:38:57;0.40;;;0.40;;
60724;SDS011;59881;36.722;-4.462;2022-11-15T08:41:32;3.58;;;0.93;;
60724;SDS011;59881;36.722;-4.462;2022-11-15T08:44:01;0.45;;;0.13;;
60724;SDS011;59881;36.722;-4.462;2022-11-15T08:46:26;0.50;;;0.40;;
60724;SDS011;59881;36.722;-4.462;2022-11-15T08:48:52;0.40;;;0.40;;
60724;SDS011;59881;36.722;-4.462;2022-11-15T08:51:18;0.30;;;0.30;;
60724;SDS011;59881;36.722;-4.462;2022-11-15T08:53:43;0.85;;;0.40;;
60724;SDS011;59881;36.722;-4.462;2022-11-15T08:56:09;0.43;;;0.28;;
60724;SDS011;59881;36.722;-4.462;2022-11-15T08:58:36;0.50;;;0.30;;
60724;SDS011;59881;36.722;-4.462;2022-11-15T09:01:02;4.35;;;1.20;;
60724;SDS011;59881;36.722;-4.462;2022-11-15T09:03:28;0.25;;;0.25;;
60724;SDS011;59881;36.722;-4.462;2022-11-15T09:05:57;0.10;;;0.10;;
60724;SDS011;59881;36.722;-4.462;2022-11-15T09:08:24;0.40;;;0.30;;
60724;SDS011;59881;36.722;-4.462;2022-11-15T09:10:51;2.55;;;0.60;;
60724;SDS011;59881;36.722;-4.462;2022-11-15T09:13:16;0.40;;;0.30;;
60724;SDS011;59881;36.722;-4.462;2022-11-15T09:15:42;1.02;;;0.40;;
60724;SDS011;59881;36.722;-4.462;2022-11-15T09:18:08;0.40;;;0.40;;
60724;SDS011;59881;36.722;-4.462;2022-11-15T09:20:33;2.38;;;0.47;;
60724;SDS011;59881;36.722;-4.462;2022-11-15T09:22:59;0.20;;;0.20;;
60724;SDS011;59881;36.722;-4.462;2022-11-15T09:25:29;1.98;;;0.52;;
60724;SDS011;59881;36.722;-4.462;2022-11-15T09:27:54;3.03;;;0.50;;
60724;SDS011;59881;36.722;-4.462;2022-11-15T09:30:20;0.90;;;0.68;;
60724;SDS011;59881;36.722;-4.462;2022-11-15T09:32:46;3.20;;;0.95;;
60724;SDS011;59881;36.722;-4.462;2022-11-15T09:35:11;0.95;;;0.50;;
60724;SDS011;59881;36.722;-4.462;2022-11-15T09:37:37;0.25;;;0.25;;
60724;SDS011;59881;36.722;-4.462;2022-11-15T09:40:03;3.10;;;0.88;;
60724;SDS011;59881;36.722;-4.462;2022-11-15T09:42:35;0.68;;;0.52;;
60724;SDS011;59881;36.722;-4.462;2022-11-15T09:45:17;0.35;;;0.35;;
60724;SDS011;59881;36.722;-4.462;2022-11-15T09:50:51;0.98;;;0.25;;
60724;SDS011;59881;36.722;-4.462;2022-11-15T10:06:29;0.30;;;0.30;;
60724;SDS011;59881;36.722;-4.462;2022-11-15T10:09:01;0.40;;;0.30;;
60724;SDS011;59881;36.722;-4.462;2022-11-15T10:11:33;1.23;;;0.52;;
60724;SDS011;59881;36.722;-4.462;2022-11-15T10:14:04;0.30;;;0.30;;
60724;SDS011;59881;36.722;-4.462;2022-11-15T10:22:18;0.20;;;0.20;;
60724;SDS011;59881;36.722;-4.462;2022-11-15T10:24:50;0.20;;;0.20;;
60724;SDS011;59881;36.722;-4.462;2022-11-15T10:27:25;1.45;;;0.32;;
60724;SDS011;59881;36.722;-4.462;2022-11-15T10:29:51;0.20;;;0.20;;
60724;SDS011;59881;36.722;-4.462;2022-11-15T10:32:18;0.20;;;0.20;;
60724;SDS011;59881;36.722;-4.462;2022-11-15T10:34:46;2.17;;;0.52;;
60724;SDS011;59881;36.722;-4.462;2022-11-15T10:37:12;0.28;;;0.28;;
60724;SDS011;59881;36.722;-4.462;2022-11-15T10:39:38;0.10;;;0.10;;
60724;SDS011;59881;36.722;-4.462;2022-11-15T10:42:16;0.43;;;0.28;;
60724;SDS011;59881;36.722;-4.462;2022-11-15T10:44:53;0.88;;;0.22;;
60724;SDS011;59881;36.722;-4.462;2022-11-15T10:49:56;0.28;;;0.28;;
60724;SDS011;59881;36.722;-4.462;2022-11-15T10:52:27;0.40;;;0.28;;
60724;SDS011;59881;36.722;-4.462;2022-11-15T10:57:30;2.00;;;0.25;;
60724;SDS011;59881;36.722;-4.462;2022-11-15T11:00:40;0.32;;;0.30;;
60724;SDS011;59881;36.722;-4.462;2022-11-15T11:05:26;0.20;;;0.20;;
60724;SDS011;59881;36.722;-4.462;2022-11-15T11:07:56;0.43;;;0.43;;
60724;SDS011;59881;36.722;-4.462;2022-11-15T11:10:28;0.20;;;0.20;;
60724;SDS011;59881;36.722;-4.462;2022-11-15T11:12:54;0.32;;;0.30;;
60724;SDS011;59881;36.722;-4.462;2022-11-15T11:15:22;0.15;;;0.15;;
60724;SDS011;59881;36.722;-4.462;2022-11-15T11:18:10;0.25;;;0.25;;
60724;SDS011;59881;36.722;-4.462;2022-11-15T11:20:47;0.57;;;0.35;;
60724;SDS011;59881;36.722;-4.462;2022-11-15T11:32:13;0.20;;;0.20;;
60724;SDS011;59881;36.722;-4.462;2022-11-15T11:43:26;0.20;;;0.20;;
60724;SDS011;59881;36.722;-4.462;2022-11-15T11:48:46;0.10;;;0.10;;
60724;SDS011;59881;36.722;-4.462;2022-11-15T11:51:33;0.28;;;0.10;;
60724;SDS011;59881;36.722;-4.462;2022-11-15T11:57:02;0.32;;;0.20;;
60724;SDS011;59881;36.722;-4.462;2022-11-15T11:59:37;0.63;;;0.30;;
60724;SDS011;59881;36.722;-4.462;2022-11-15T12:02:16;1.52;;;0.28;;
60724;SDS011;59881;36.722;-4.462;2022-11-15T12:04:51;0.10;;;0.10;;
60724;SDS011;59881;36.722;-4.462;2022-11-15T12:07:21;0.10;;;0.10;;
60724;SDS011;59881;36.722;-4.462;2022-11-15T12:09:55;0.35;;;0.35;;
60724;SDS011;59881;36.722;-4.462;2022-11-15T12:14:55;0.28;;;0.22;;
60724;SDS011;59881;36.722;-4.462;2022-11-15T12:17:28;0.20;;;0.20;;
60724;SDS011;59881;36.722;-4.462;2022-11-15T12:19:58;0.55;;;0.30;;
60724;SDS011;59881;36.722;-4.462;2022-11-15T12:23:13;0.85;;;0.25;;
60724;SDS011;59881;36.722;-4.462;2022-11-15T12:25:32;0.20;;;0.20;;
60724;SDS011;59881;36.722;-4.462;2022-11-15T12:28:22;0.10;;;0.10;;
60724;SDS011;59881;36.722;-4.462;2022-11-15T12:30:52;0.10;;;0.10;;
60724;SDS011;59881;36.722;-4.462;2022-11-15T12:36:03;0.15;;;0.13;;
60724;SDS011;59881;36.722;-4.462;2022-11-15T12:39:06;0.57;;;0.20;;
60724;SDS011;59881;36.722;-4.462;2022-11-15T12:41:44;0.32;;;0.32;;
60724;SDS011;59881;36.722;-4.462;2022-11-15T12:59:54;0.30;;;0.30;;
60724;SDS011;59881;36.722;-4.462;2022-11-15T13:08:00;0.25;;;0.25;;
60724;SDS011;59881;36.722;-4.462;2022-11-15T13:12:58;0.63;;;0.52;;
60724;SDS011;59881;36.722;-4.462;2022-11-15T13:18:23;0.75;;;0.52;;
60724;SDS011;59881;36.722;-4.462;2022-11-15T13:20:56;0.10;;;0.10;;
60724;SDS011;59881;36.722;-4.462;2022-11-15T13:23:22;0.52;;;0.43;;
60724;SDS011;59881;36.722;-4.462;2022-11-15T13:34:00;0.40;;;0.30;;
60724;SDS011;59881;36.722;-4.462;2022-11-15T13:36:32;0.30;;;0.30;;
60724;SDS011;59881;36.722;-4.462;2022-11-15T13:39:03;1.02;;;0.52;;
60724;SDS011;59881;36.722;-4.462;2022-11-15T13:41:45;2.63;;;0.70;;
60724;SDS011;59881;36.722;-4.462;2022-11-15T13:44:21;0.85;;;0.63;;
60724;SDS011;59881;36.722;-4.462;2022-11-15T13:47:00;0.68;;;0.40;;
60724;SDS011;59881;36.722;-4.462;2022-11-15T13:49:31;2.33;;;0.55;;
60724;SDS011;59881;36.722;-4.462;2022-11-15T13:51:57;0.65;;;0.40;;
60724;SDS011;59881;36.722;-4.462;2022-11-15T13:54:30;0.77;;;0.60;;
60724;SDS011;59881;36.722;-4.462;2022-11-15T13:59:49;1.13;;;0.63;;
60724;SDS011;59881;36.722;-4.462;2022-11-15T14:02:31;0.70;;;0.50;;
60724;SDS011;59881;36.722;-4.462;2022-11-15T14:05:14;2.35;;;0.47;;
60724;SDS011;59881;36.722;-4.462;2022-11-15T14:07:56;0.63;;;0.43;;
60724;SDS011;59881;36.722;-4.462;2022-11-15T14:10:30;0.52;;;0.20;;
60724;SDS011;59881;36.722;-4.462;2022-11-15T14:13:00;0.40;;;0.40;;
60724;SDS011;59881;36.722;-4.462;2022-11-15T14:15:36;1.67;;;0.57;;
60724;SDS011;59881;36.722;-4.462;2022-11-15T14:18:03;0.30;;;0.30;;
60724;SDS011;59881;36.722;-4.462;2022-11-15T14:20:35;1.02;;;0.55;;
60724;SDS011;59881;36.722;-4.462;2022-11-15T14:23:04;1.13;;;0.40;;
60724;SDS011;59881;36.722;-4.462;2022-11-15T14:25:33;5.55;;;0.73;;
60724;SDS011;59881;36.722;-4.462;2022-11-15T14:30:36;4.07;;;0.50;;
60724;SDS011;59881;36.722;-4.462;2022-11-15T14:35:50;1.00;;;0.70;;
60724;SDS011;59881;36.722;-4.462;2022-11-15T14:38:17;0.30;;;0.30;;
60724;SDS011;59881;36.722;-4.462;2022-11-15T14:40:43;0.45;;;0.45;;
60724;SDS011;59881;36.722;-4.462;2022-11-15T14:43:12;0.20;;;0.20;;
60724;SDS011;59881;36.722;-4.462;2022-11-15T14:45:40;1.50;;;0.45;;
60724;SDS011;59881;36.722;-4.462;2022-11-15T14:48:06;2.72;;;0.82;;
60724;SDS011;59881;36.722;-4.462;2022-11-15T14:50:31;0.63;;;0.50;;
60724;SDS011;59881;36.722;-4.462;2022-11-15T14:52:58;1.83;;;0.85;;
60724;SDS011;59881;36.722;-4.462;2022-11-15T14:55:25;0.20;;;0.20;;
60724;SDS011;59881;36.722;-4.462;2022-11-15T14:57:51;0.52;;;0.52;;
60724;SDS011;59881;36.722;-4.462;2022-11-15T15:00:17;0.32;;;0.30;;
60724;SDS011;59881;36.722;-4.462;2022-11-15T15:02:44;0.45;;;0.40;;
60724;SDS011;59881;36.722;-4.462;2022-11-15T16:59:02;0.35;;;0.35;;
60724;SDS011;59881;36.722;-4.462;2022-11-15T17:01:31;0.43;;;0.43;;
60724;SDS011;59881;36.722;-4.462;2022-11-15T17:03:59;0.43;;;0.20;;
60724;SDS011;59881;36.722;-4.462;2022-11-15T17:06:36;0.30;;;0.30;;
60724;SDS011;59881;36.722;-4.462;2022-11-15T17:09:03;0.75;;;0.32;;
60724;SDS011;59881;36.722;-4.462;2022-11-15T17:11:29;0.20;;;0.20;;
60724;SDS011;59881;36.722;-4.462;2022-11-15T17:13:58;0.55;;;0.45;;
60724;SDS011;59881;36.722;-4.462;2022-11-15T17:16:23;1.25;;;0.38;;
60724;SDS011;59881;36.722;-4.462;2022-11-15T17:18:50;0.20;;;0.20;;
60724;SDS011;59881;36.722;-4.462;2022-11-15T17:21:16;0.10;;;0.10;;
60724;SDS011;59881;36.722;-4.462;2022-11-15T17:23:43;0.38;;;0.17;;
60724;SDS011;59881;36.722;-4.462;2022-11-15T17:26:10;0.10;;;0.10;;
60724;SDS011;59881;36.722;-4.462;2022-11-15T17:28:38;2.25;;;0.55;;
60724;SDS011;59881;36.722;-4.462;2022-11-15T17:31:08;0.85;;;0.30;;
60724;SDS011;59881;36.722;-4.462;2022-11-15T17:33:35;0.28;;;0.28;;
60724;SDS011;59881;36.722;-4.462;2022-11-15T17:36:03;0.43;;;0.30;;
60724;SDS011;59881;36.722;-4.462;2022-11-15T17:38:31;0.38;;;0.22;;
60724;SDS011;59881;36.722;-4.462;2022-11-15T17:41:04;2.83;;;0.73;;
60724;SDS011;59881;36.722;-4.462;2022-11-15T17:43:37;0.22;;;0.22;;
60724;SDS011;59881;36.722;-4.462;2022-11-15T17:46:03;0.10;;;0.10;;
60724;SDS011;59881;36.722;-4.462;2022-11-15T17:48:30;0.10;;;0.10;;
60724;SDS011;59881;36.722;-4.462;2022-11-15T17:50:57;0.90;;;0.28;;
60724;SDS011;59881;36.722;-4.462;2022-11-15T17:53:30;0.10;;;0.10;;
60724;SDS011;59881;36.722;-4.462;2022-11-15T17:56:04;0.00;;;0.00;;
60724;SDS011;59881;36.722;-4.462;2022-11-15T17:58:34;0.10;;;0.10;;
60724;SDS011;59881;36.722;-4.462;2022-11-15T18:01:20;0.10;;;0.10;;
60724;SDS011;59881;36.722;-4.462;2022-11-15T18:03:50;0.20;;;0.20;;
60724;SDS011;59881;36.722;-4.462;2022-11-15T18:06:17;0.00;;;0.00;;
60724;SDS011;59881;36.722;-4.462;2022-11-15T18:08:44;0.10;;;0.10;;
60724;SDS011;59881;36.722;-4.462;2022-11-15T18:11:12;0.10;;;0.10;;
60724;SDS011;59881;36.722;-4.462;2022-11-15T18:13:40;0.20;;;0.20;;
60724;SDS011;59881;36.722;-4.462;2022-11-15T18:16:10;1.48;;;0.30;;
60724;SDS011;59881;36.722;-4.462;2022-11-15T18:18:37;0.00;;;0.00;;
60724;SDS011;59881;36.722;-4.462;2022-11-15T18:21:08;0.00;;;0.00;;
60724;SDS011;59881;36.722;-4.462;2022-11-15T18:23:39;0.10;;;0.10;;
60724;SDS011;59881;36.722;-4.462;2022-11-15T18:26:06;0.17;;;0.17;;
60724;SDS011;59881;36.722;-4.462;2022-11-15T18:28:34;0.10;;;0.10;;
60724;SDS011;59881;36.722;-4.462;2022-11-15T18:31:02;0.80;;;0.30;;
60724;SDS011;59881;36.722;-4.462;2022-11-15T18:33:32;0.10;;;0.10;;
60724;SDS011;59881;36.722;-4.462;2022-11-15T18:36:04;0.10;;;0.10;;
60724;SDS011;59881;36.722;-4.462;2022-11-15T18:38:32;0.00;;;0.00;;
60724;SDS011;59881;36.722;-4.462;2022-11-15T18:41:08;0.00;;;0.00;;
60724;SDS011;59881;36.722;-4.462;2022-11-15T18:43:35;0.28;;;0.28;;
60724;SDS011;59881;36.722;-4.462;2022-11-15T18:46:05;0.40;;;0.40;;
60724;SDS011;59881;36.722;-4.462;2022-11-15T18:48:36;0.10;;;0.10;;